Time;durP1;ratioP1;P1;durP2;ratioP2;P2;SDS_P1;SDS_P2;PMS_P1;PMS_P2;Temp;Humidity;BMP_temperature;BMP_pressure;BME280_temperature;BME280_humidity;BME280_pressure;Samples;Min_cycle;Max_cycle;Signal;HPM_P1;HPM_P2
2022/10/05 00:02:23;;;;;;;9.00;6.43;;;15.10;99.90;;;;;;5043730;28;20045;-70
2022/10/05 00:04:55;;;;;;;7.93;5.43;;;15.00;99.90;;;;;;5048476;28;20440;-70
2022/10/05 00:07:22;;;;;;;8.40;5.85;;;15.10;99.90;;;;;;5044520;28;20045;-70
2022/10/05 00:09:56;;;;;;;7.10;5.82;;;15.10;99.90;;;;;;5044196;28;20531;-70
2022/10/05 00:12:23;;;;;;;7.95;6.30;;;15.00;99.90;;;;;;5046955;28;20140;-70
2022/10/05 00:14:54;;;;;;;9.60;5.53;;;15.10;99.90;;;;;;5047359;28;20041;-70
2022/10/05 00:17:25;;;;;;;8.05;5.50;;;15.10;99.90;;;;;;5046208;28;20041;-70
2022/10/05 00:19:52;;;;;;;8.38;5.43;;;15.10;99.90;;;;;;5049858;28;20056;-70
2022/10/05 00:22:20;;;;;;;9.55;5.80;;;15.10;99.90;;;;;;5045141;28;20041;-70
2022/10/05 00:24:50;;;;;;;10.55;5.22;;;15.10;99.90;;;;;;5046992;28;20072;-70
2022/10/05 00:27:19;;;;;;;7.15;5.20;;;15.00;99.90;;;;;;5048033;28;20052;-70
2022/10/05 00:29:46;;;;;;;5.78;4.93;;;15.10;99.90;;;;;;5048590;28;20041;-70
2022/10/05 00:32:11;;;;;;;8.05;5.25;;;15.00;99.90;;;;;;5047809;28;20523;-70
2022/10/05 00:34:37;;;;;;;7.60;4.85;;;15.10;99.90;;;;;;5050049;28;20045;-70
2022/10/05 00:37:04;;;;;;;7.50;4.80;;;15.10;99.90;;;;;;5049811;28;20045;-70
2022/10/05 00:39:30;;;;;;;7.93;4.22;;;15.00;99.90;;;;;;5048119;28;20049;-70
2022/10/05 00:42:17;;;;;;;5.35;4.22;;;15.00;99.90;;;;;;5045692;28;20046;-70
2022/10/05 00:44:47;;;;;;;6.45;4.03;;;15.10;99.90;;;;;;5046655;28;20052;-70
2022/10/05 00:47:19;;;;;;;5.38;4.03;;;15.10;99.90;;;;;;5040047;28;20041;-70
2022/10/05 00:49:47;;;;;;;9.35;4.78;;;15.10;99.90;;;;;;5043717;28;20163;-70
2022/10/05 00:52:31;;;;;;;4.95;4.22;;;15.00;99.90;;;;;;5048694;28;20045;-70
2022/10/05 00:55:02;;;;;;;7.07;4.23;;;15.10;99.90;;;;;;5043092;28;20052;-70
2022/10/05 00:57:47;;;;;;;6.82;4.32;;;15.10;99.90;;;;;;5024860;28;20045;-70
2022/10/05 01:00:17;;;;;;;8.43;4.55;;;15.10;99.90;;;;;;5045701;28;20052;-70
2022/10/05 01:03:09;;;;;;;7.90;5.18;;;15.10;99.90;;;;;;5025596;28;20302;-70
2022/10/05 01:06:04;;;;;;;5.95;5.03;;;15.10;99.90;;;;;;5038805;28;20057;-70
2022/10/05 01:08:46;;;;;;;9.45;4.82;;;15.00;99.90;;;;;;5041864;28;20086;-70
2022/10/05 01:11:29;;;;;;;8.80;5.70;;;15.00;99.90;;;;;;5044535;28;20379;-70
2022/10/05 01:14:12;;;;;;;7.78;4.95;;;15.10;99.90;;;;;;5042252;28;20595;-70
2022/10/05 01:17:43;;;;;;;8.05;5.18;;;15.00;99.90;;;;;;5045444;28;20425;-70
2022/10/05 01:20:47;;;;;;;8.20;5.70;;;15.00;99.90;;;;;;4955707;28;20117;-70
2022/10/05 01:23:39;;;;;;;7.20;5.63;;;15.00;99.90;;;;;;5022242;28;20053;-70
2022/10/05 01:26:37;;;;;;;10.02;6.20;;;15.00;99.90;;;;;;5016737;28;20134;-70
2022/10/05 01:29:21;;;;;;;7.85;5.47;;;15.00;99.90;;;;;;5020442;28;20053;-70
2022/10/05 01:32:01;;;;;;;8.32;5.70;;;15.00;99.90;;;;;;5043758;28;20077;-70
2022/10/05 01:34:52;;;;;;;9.20;6.15;;;15.00;99.90;;;;;;5041663;28;20040;-70
2022/10/05 01:37:48;;;;;;;6.50;5.78;;;15.00;99.90;;;;;;5045853;28;20049;-70
2022/10/05 01:40:42;;;;;;;8.48;5.70;;;15.00;99.90;;;;;;5043021;28;20037;-70
2022/10/05 01:43:17;;;;;;;9.25;6.43;;;15.00;99.90;;;;;;5046201;28;20041;-70
2022/10/05 01:46:15;;;;;;;7.65;5.93;;;14.90;99.90;;;;;;5045845;28;20337;-70
2022/10/05 01:49:21;;;;;;;10.32;6.38;;;14.90;99.90;;;;;;4992941;28;20133;-70
2022/10/05 01:51:49;;;;;;;8.32;6.00;;;15.00;99.90;;;;;;5029072;28;20565;-70
2022/10/05 01:54:27;;;;;;;9.43;6.45;;;14.90;99.90;;;;;;5042926;28;20037;-70
2022/10/05 01:57:00;;;;;;;9.82;6.38;;;14.90;99.90;;;;;;5041827;28;20036;-70
2022/10/05 01:59:46;;;;;;;8.55;6.50;;;14.90;99.90;;;;;;5046040;28;20052;-70
2022/10/05 02:02:17;;;;;;;8.55;7.07;;;14.90;99.90;;;;;;5038735;28;20057;-70
2022/10/05 02:04:58;;;;;;;8.65;6.75;;;15.00;99.90;;;;;;5039288;28;20037;-70
2022/10/05 02:07:39;;;;;;;10.85;7.07;;;14.90;99.90;;;;;;5050099;28;20820;-70
2022/10/05 02:10:23;;;;;;;9.52;6.70;;;15.00;99.90;;;;;;5042818;28;20041;-70
2022/10/05 02:12:54;;;;;;;9.60;7.18;;;14.90;99.90;;;;;;5044902;28;20048;-70
2022/10/05 02:15:26;;;;;;;10.18;7.18;;;14.90;99.90;;;;;;5044940;28;20387;-70
2022/10/05 02:18:13;;;;;;;8.77;6.90;;;14.90;99.90;;;;;;5059042;28;20595;-70
2022/10/05 02:20:41;;;;;;;8.48;6.45;;;14.90;99.90;;;;;;5048483;28;20046;-70
2022/10/05 02:23:16;;;;;;;10.32;7.82;;;14.90;99.90;;;;;;5038748;28;20068;-70
2022/10/05 02:25:45;;;;;;;10.60;7.53;;;14.80;99.90;;;;;;5060959;28;20058;-70
2022/10/05 02:28:53;;;;;;;9.18;7.18;;;14.80;99.90;;;;;;5044814;28;20079;-70
2022/10/05 02:31:27;;;;;;;9.55;7.53;;;14.80;99.90;;;;;;5009445;28;20049;-70
2022/10/05 02:34:18;;;;;;;12.60;7.05;;;14.80;99.90;;;;;;5042746;28;20575;-70
2022/10/05 02:36:45;;;;;;;11.30;7.05;;;14.80;99.90;;;;;;5043523;28;20523;-70
2022/10/05 02:39:33;;;;;;;10.48;7.78;;;14.80;99.90;;;;;;5037540;28;20049;-70
2022/10/05 02:42:18;;;;;;;13.93;7.32;;;14.70;99.90;;;;;;5038114;28;20065;-70
2022/10/05 02:45:09;;;;;;;8.65;7.28;;;14.70;99.90;;;;;;5044740;28;20030;-70
2022/10/05 02:47:46;;;;;;;11.15;7.47;;;14.70;99.90;;;;;;5046428;28;20460;-70
2022/10/05 02:50:25;;;;;;;9.32;7.18;;;14.70;99.90;;;;;;5036047;28;20052;-70
2022/10/05 02:53:19;;;;;;;8.93;6.93;;;14.70;99.90;;;;;;5041171;28;20785;-70
2022/10/05 02:56:05;;;;;;;10.30;7.15;;;14.80;99.90;;;;;;5044184;28;20192;-70
2022/10/05 02:58:52;;;;;;;8.15;7.15;;;14.70;99.90;;;;;;5047135;28;20056;-70
2022/10/05 03:01:45;;;;;;;10.70;7.03;;;14.80;99.90;;;;;;5044765;28;20515;-70
2022/10/05 03:04:38;;;;;;;8.88;6.65;;;14.80;99.90;;;;;;5033428;28;20120;-70
2022/10/05 03:07:16;;;;;;;11.65;7.28;;;14.80;99.90;;;;;;5045416;28;20037;-71
2022/10/05 03:09:59;;;;;;;8.23;6.70;;;14.80;99.90;;;;;;5042077;28;20041;-70
2022/10/05 03:12:38;;;;;;;7.75;6.80;;;14.80;99.90;;;;;;5044688;28;20385;-70
2022/10/05 03:15:18;;;;;;;10.32;7.53;;;14.80;99.90;;;;;;5047466;28;20083;-71
2022/10/05 03:18:07;;;;;;;7.88;6.25;;;14.70;99.90;;;;;;5043500;28;20041;-70
2022/10/05 03:20:44;;;;;;;7.70;6.60;;;14.80;99.90;;;;;;5040544;28;20033;-71
2022/10/05 03:23:39;;;;;;;8.60;6.60;;;14.80;99.90;;;;;;5045367;28;20036;-70
2022/10/05 03:26:20;;;;;;;7.75;6.25;;;14.80;99.90;;;;;;5012073;28;20045;-70
2022/10/05 03:29:01;;;;;;;9.07;6.38;;;14.70;99.90;;;;;;5022441;28;20076;-70
2022/10/05 03:31:42;;;;;;;8.07;5.90;;;14.70;99.90;;;;;;5029013;28;20043;-70
2022/10/05 03:34:32;;;;;;;8.68;6.35;;;14.70;99.90;;;;;;5039823;28;20049;-70
2022/10/05 03:37:27;;;;;;;10.82;6.85;;;14.70;99.90;;;;;;5044302;28;20036;-70
2022/10/05 03:40:22;;;;;;;6.72;5.95;;;14.70;99.90;;;;;;5038278;28;20036;-70
2022/10/05 03:42:56;;;;;;;7.50;6.55;;;14.70;99.90;;;;;;5045243;28;20397;-70
2022/10/05 03:45:59;;;;;;;9.55;6.30;;;14.70;99.90;;;;;;5044255;28;20037;-70
2022/10/05 03:48:35;;;;;;;11.00;6.70;;;14.70;99.90;;;;;;5044590;28;20115;-70
2022/10/05 03:51:14;;;;;;;7.25;6.35;;;14.60;99.90;;;;;;5044422;28;20551;-70
2022/10/05 03:53:46;;;;;;;11.68;6.82;;;14.60;99.90;;;;;;5043326;28;20423;-70
2022/10/05 03:56:23;;;;;;;9.25;6.18;;;14.60;99.90;;;;;;5048636;28;20048;-70
2022/10/05 03:58:57;;;;;;;8.50;5.93;;;14.60;99.90;;;;;;5040266;28;20104;-70
2022/10/05 04:01:57;;;;;;;7.90;6.68;;;14.60;99.90;;;;;;5024023;28;20106;-70
2022/10/05 04:04:55;;;;;;;8.93;7.10;;;14.60;99.90;;;;;;5029811;28;20489;-70
2022/10/05 04:07:55;;;;;;;11.23;6.78;;;14.70;99.90;;;;;;5035231;28;20160;-70
2022/10/05 04:10:28;;;;;;;7.70;6.75;;;14.70;99.90;;;;;;5045205;28;20116;-70
2022/10/05 04:13:03;;;;;;;9.57;6.88;;;14.60;99.90;;;;;;5042085;28;20050;-70
2022/10/05 04:15:36;;;;;;;11.07;7.30;;;14.60;99.90;;;;;;5044407;28;20033;-70
2022/10/05 04:18:06;;;;;;;10.15;6.85;;;14.60;99.90;;;;;;5037326;28;20050;-70
2022/10/05 04:20:47;;;;;;;9.25;7.35;;;14.60;99.90;;;;;;5040827;28;20041;-71
2022/10/05 04:23:39;;;;;;;11.95;6.90;;;14.60;99.90;;;;;;5039386;28;20053;-70
2022/10/05 04:26:14;;;;;;;9.50;7.10;;;14.60;99.90;;;;;;5039330;28;20524;-70
2022/10/05 04:28:51;;;;;;;9.32;7.28;;;14.60;99.90;;;;;;5043444;28;20040;-70
2022/10/05 04:31:42;;;;;;;8.60;7.10;;;14.60;99.90;;;;;;5042100;28;20361;-70
2022/10/05 04:34:26;;;;;;;12.32;7.53;;;14.60;99.90;;;;;;5042545;28;20040;-70
2022/10/05 04:37:00;;;;;;;10.52;7.63;;;14.60;99.90;;;;;;5042076;28;20135;-70
2022/10/05 04:39:44;;;;;;;10.63;7.75;;;14.60;99.90;;;;;;5045826;28;20045;-70
2022/10/05 04:42:19;;;;;;;11.88;7.63;;;14.60;99.90;;;;;;5041819;28;20048;-70
2022/10/05 04:45:04;;;;;;;8.18;7.38;;;14.60;99.90;;;;;;5042760;28;20440;-70
2022/10/05 04:47:38;;;;;;;;;;;14.60;99.90;;;;;;5046424;28;20094;-70
2022/10/05 04:50:46;;;;;;;10.77;7.68;;;14.50;99.90;;;;;;5045468;28;19955;-70
2022/10/05 04:53:29;;;;;;;8.27;6.60;;;14.60;99.90;;;;;;5047970;28;20080;-70
2022/10/05 04:56:14;;;;;;;11.35;7.10;;;14.50;99.90;;;;;;5040338;28;20124;-70
2022/10/05 04:59:20;;;;;;;8.52;6.93;;;14.60;99.90;;;;;;5048863;28;20469;-71
2022/10/05 05:02:19;;;;;;;10.85;7.53;;;14.60;99.90;;;;;;5043233;28;20501;-70
2022/10/05 05:05:01;;;;;;;12.40;7.30;;;14.60;99.90;;;;;;5041111;28;20033;-70
2022/10/05 05:07:52;;;;;;;10.30;7.38;;;14.60;99.90;;;;;;5046475;28;20036;-70
2022/10/05 05:10:53;;;;;;;12.35;7.10;;;14.60;99.90;;;;;;5047377;28;20077;-70
2022/10/05 05:13:36;;;;;;;10.15;7.47;;;14.60;99.90;;;;;;5039024;28;20400;-70
2022/10/05 05:16:38;;;;;;;11.13;8.00;;;14.50;99.90;;;;;;5043035;28;20051;-70
2022/10/05 05:19:04;;;;;;;8.13;6.68;;;14.50;99.90;;;;;;5030164;28;20144;-70
2022/10/05 05:21:48;;;;;;;10.63;7.43;;;14.50;99.90;;;;;;5044197;28;20133;-70
2022/10/05 05:24:36;;;;;;;9.57;7.68;;;14.50;99.90;;;;;;5030017;28;20059;-70
2022/10/05 05:27:23;;;;;;;9.82;8.50;;;14.50;99.90;;;;;;5028558;28;20045;-70
2022/10/05 05:30:01;;;;;;;9.10;8.13;;;14.50;99.90;;;;;;5047388;28;20122;-70
2022/10/05 05:32:40;;;;;;;9.95;7.82;;;14.50;99.90;;;;;;5045813;28;20671;-70
2022/10/05 05:35:44;;;;;;;9.82;7.63;;;14.50;99.90;;;;;;5044335;28;20072;-70
2022/10/05 05:38:43;;;;;;;11.73;7.88;;;14.50;99.90;;;;;;5001025;28;20069;-69
2022/10/05 05:41:14;;;;;;;10.02;7.30;;;14.40;99.90;;;;;;5045885;28;20052;-70
2022/10/05 05:44:02;;;;;;;11.32;8.07;;;14.40;99.90;;;;;;5046617;28;20048;-70
2022/10/05 05:46:40;;;;;;;11.70;8.52;;;14.50;99.90;;;;;;5047144;28;20038;-70
2022/10/05 05:49:26;;;;;;;9.63;7.95;;;14.40;99.90;;;;;;5055945;28;20033;-70
2022/10/05 05:51:57;;;;;;;9.43;8.00;;;14.50;99.90;;;;;;5044015;28;20065;-70
2022/10/05 05:54:43;;;;;;;10.13;7.93;;;14.40;99.90;;;;;;5044255;28;20055;-70
2022/10/05 05:57:18;;;;;;;10.73;7.93;;;14.50;99.90;;;;;;5043620;28;20037;-70
2022/10/05 05:59:49;;;;;;;10.90;8.68;;;14.40;99.90;;;;;;5044402;28;20203;-70
2022/10/05 06:02:23;;;;;;;9.35;8.25;;;14.40;99.90;;;;;;5030692;28;20107;-70
2022/10/05 06:04:55;;;;;;;12.38;8.50;;;14.40;99.90;;;;;;5039959;28;20079;-70
2022/10/05 06:07:26;;;;;;;9.38;8.25;;;14.40;99.90;;;;;;5043578;28;20469;-70
2022/10/05 06:10:28;;;;;;;12.10;8.70;;;14.40;99.90;;;;;;5029429;28;20125;-71
2022/10/05 06:12:57;;;;;;;11.93;8.05;;;14.40;99.90;;;;;;5042062;28;20034;-71
2022/10/05 06:15:52;;;;;;;10.38;8.30;;;14.40;99.90;;;;;;5043130;28;20037;-71
2022/10/05 06:18:21;;;;;;;11.05;8.05;;;14.40;99.90;;;;;;5041426;28;20045;-70
2022/10/05 06:21:20;;;;;;;11.38;8.82;;;14.40;99.90;;;;;;5042183;28;20041;-70
2022/10/05 06:23:54;;;;;;;12.48;7.60;;;14.40;99.90;;;;;;5038015;28;20034;-70
2022/10/05 06:26:38;;;;;;;12.52;8.40;;;14.40;99.90;;;;;;5044978;28;20389;-70
2022/10/05 06:29:13;;;;;;;12.35;8.65;;;14.40;99.90;;;;;;5042450;28;20061;-70
2022/10/05 06:32:19;;;;;;;9.25;8.00;;;14.40;99.90;;;;;;5042277;28;20041;-70
2022/10/05 06:35:05;;;;;;;9.00;8.10;;;14.50;99.90;;;;;;5042277;28;20041;-70
2022/10/05 06:37:38;;;;;;;9.10;7.90;;;14.50;99.90;;;;;;5040055;28;20053;-70
2022/10/05 06:40:19;;;;;;;10.02;7.65;;;14.50;99.90;;;;;;5039659;28;20045;-70
2022/10/05 06:43:00;;;;;;;9.32;7.50;;;14.50;99.90;;;;;;5045026;28;20041;-70
2022/10/05 06:45:29;;;;;;;8.98;7.22;;;14.50;99.90;;;;;;5043116;28;20438;-70
2022/10/05 06:48:24;;;;;;;8.23;7.05;;;14.50;99.90;;;;;;5042945;28;20480;-70
2022/10/05 06:50:53;;;;;;;;;;;14.60;99.90;;;;;;5041681;28;20068;-70
2022/10/05 06:53:37;;;;;;;8.18;6.93;;;14.50;99.90;;;;;;5045877;28;20257;-70
2022/10/05 06:56:16;;;;;;;8.52;6.93;;;14.50;99.90;;;;;;5038354;28;20113;-70
2022/10/05 06:59:12;;;;;;;8.18;7.40;;;14.60;99.90;;;;;;5040526;28;20059;-70
2022/10/05 07:01:56;;;;;;;7.78;6.88;;;14.60;99.90;;;;;;5043308;28;20567;-70
2022/10/05 07:04:36;;;;;;;7.07;6.38;;;14.60;99.90;;;;;;5042623;28;20071;-70
2022/10/05 07:07:32;;;;;;;8.18;7.28;;;14.60;99.90;;;;;;5058477;28;20045;-70
2022/10/05 07:10:19;;;;;;;10.25;6.93;;;14.70;99.90;;;;;;5044361;28;20539;-70
2022/10/05 07:12:51;;;;;;;9.00;6.85;;;14.70;99.90;;;;;;5044417;28;20377;-71
2022/10/05 07:15:32;;;;;;;8.10;5.90;;;14.70;99.90;;;;;;5040837;28;20053;-70
2022/10/05 07:18:09;;;;;;;6.22;5.57;;;14.70;99.90;;;;;;5041004;28;20049;-70
2022/10/05 07:20:56;;;;;;;7.20;5.55;;;14.80;99.90;;;;;;5044840;28;20037;-70
2022/10/05 07:23:46;;;;;;;5.93;5.30;;;14.80;99.90;;;;;;5040519;28;20091;-70
2022/10/05 07:26:22;;;;;;;7.30;5.43;;;14.90;99.90;;;;;;5041190;28;20099;-70
2022/10/05 07:29:05;;;;;;;5.60;5.10;;;14.90;99.90;;;;;;5039325;28;20603;-70
2022/10/05 07:32:14;;;;;;;7.20;5.45;;;15.00;99.90;;;;;;5043413;28;20137;-70
2022/10/05 07:34:53;;;;;;;4.97;4.53;;;15.00;99.90;;;;;;5025523;28;20164;-65
2022/10/05 07:40:32;;;;;;;5.88;5.38;;;15.10;99.90;;;;;;5045190;28;20081;-70
2022/10/05 07:43:13;;;;;;;7.90;5.20;;;15.20;99.90;;;;;;5041530;28;20060;-70
2022/10/05 07:45:57;;;;;;;6.07;5.43;;;15.20;99.90;;;;;;5041983;28;20049;-70
2022/10/05 07:48:51;;;;;;;6.50;5.75;;;15.20;99.90;;;;;;5044081;28;20516;-70
2022/10/05 07:51:44;;;;;;;7.18;5.50;;;15.20;99.90;;;;;;5045013;28;20049;-69
2022/10/05 07:54:15;;;;;;;6.38;5.43;;;15.20;99.90;;;;;;5034082;28;20528;-69
2022/10/05 07:56:44;;;;;;;6.30;5.70;;;15.20;99.90;;;;;;5040450;28;20061;-70
2022/10/05 07:59:37;;;;;;;6.43;5.30;;;15.30;99.90;;;;;;5060660;28;20049;-70
2022/10/05 08:02:39;;;;;;;7.30;6.07;;;15.30;99.90;;;;;;5042012;28;20504;-70
2022/10/05 08:05:28;;;;;;;7.22;6.10;;;15.40;99.90;;;;;;5041348;28;20037;-69
2022/10/05 08:08:00;;;;;;;6.28;5.68;;;15.50;99.90;;;;;;5043922;28;20053;-70
2022/10/05 08:10:35;;;;;;;7.10;6.18;;;15.60;99.90;;;;;;5043139;28;20331;-70
2022/10/05 08:13:16;;;;;;;6.82;5.82;;;15.70;99.90;;;;;;5041204;28;20057;-70
2022/10/05 08:15:47;;;;;;;7.03;6.18;;;15.70;99.90;;;;;;5043252;28;20061;-70
2022/10/05 08:18:18;;;;;;;6.70;5.57;;;15.80;99.90;;;;;;5047106;28;20107;-70
2022/10/05 08:20:53;;;;;;;5.53;4.93;;;15.90;99.90;;;;;;5047129;28;20060;-70
2022/10/05 08:23:29;;;;;;;8.15;6.15;;;16.00;99.90;;;;;;5044597;28;20076;-70
2022/10/05 08:26:11;;;;;;;7.30;5.85;;;16.00;99.90;;;;;;5043596;28;20581;-70
2022/10/05 08:28:46;;;;;;;9.02;5.80;;;16.10;99.90;;;;;;5033498;28;20049;-70
2022/10/05 08:31:36;;;;;;;6.50;5.38;;;16.10;99.90;;;;;;5046916;28;20459;-70
2022/10/05 08:34:18;;;;;;;6.40;5.70;;;16.20;99.90;;;;;;5043978;28;20045;-71
2022/10/05 08:37:17;;;;;;;5.55;4.70;;;16.20;99.90;;;;;;5051759;28;20081;-71
2022/10/05 08:40:21;;;;;;;6.70;5.32;;;16.30;99.90;;;;;;5051808;28;20485;-70
2022/10/05 08:43:08;;;;;;;8.48;5.68;;;16.40;99.90;;;;;;5047365;28;20073;-71
2022/10/05 08:45:48;;;;;;;5.60;5.10;;;16.50;99.90;;;;;;5046587;28;20072;-70
2022/10/05 08:48:17;;;;;;;6.72;5.10;;;16.50;99.90;;;;;;5048713;28;20044;-71
2022/10/05 08:50:58;;;;;;;7.00;5.38;;;16.50;99.90;;;;;;5049443;28;20105;-71
2022/10/05 08:53:27;;;;;;;6.60;5.53;;;16.50;99.90;;;;;;5051348;28;20048;-71
2022/10/05 08:56:23;;;;;;;5.38;4.75;;;16.50;99.90;;;;;;5047960;28;20056;-70
2022/10/05 08:59:28;;;;;;;5.30;4.47;;;16.60;99.90;;;;;;5049302;28;20077;-71
2022/10/05 09:02:08;;;;;;;5.85;4.85;;;16.60;99.90;;;;;;5047653;28;20077;-71
2022/10/05 09:04:47;;;;;;;6.22;4.65;;;16.60;99.90;;;;;;5045894;28;20041;-70
2022/10/05 09:07:45;;;;;;;7.82;4.68;;;16.60;99.90;;;;;;5054531;28;20040;-71
2022/10/05 09:10:57;;;;;;;5.60;4.18;;;16.60;99.90;;;;;;5046870;28;20127;-71
2022/10/05 09:14:04;;;;;;;7.22;4.03;;;16.70;99.90;;;;;;5044791;28;20049;-70
2022/10/05 09:17:01;;;;;;;4.78;3.83;;;16.70;99.90;;;;;;4950771;28;20043;-70
2022/10/05 09:19:48;;;;;;;3.95;3.15;;;16.70;99.90;;;;;;5047129;28;20061;-70
2022/10/05 09:22:37;;;;;;;5.28;3.30;;;16.70;99.90;;;;;;5028925;28;20056;-70
2022/10/05 09:25:22;;;;;;;7.95;3.20;;;16.70;99.90;;;;;;5044689;28;20389;-70
2022/10/05 09:27:54;;;;;;;3.65;3.35;;;16.80;99.90;;;;;;5043821;28;20087;-70
2022/10/05 09:30:24;;;;;;;4.20;3.03;;;16.80;99.90;;;;;;5043040;28;20072;-70
2022/10/05 09:32:52;;;;;;;3.88;2.80;;;16.80;99.90;;;;;;5046361;28;20060;-70
2022/10/05 09:35:56;;;;;;;3.72;2.92;;;16.80;99.90;;;;;;5047848;28;20045;-71
2022/10/05 09:38:28;;;;;;;3.38;2.47;;;16.90;99.90;;;;;;5046671;28;20049;-70
2022/10/05 09:41:22;;;;;;;3.47;2.63;;;16.90;99.90;;;;;;5044681;28;20056;-70
2022/10/05 09:44:02;;;;;;;4.70;2.55;;;16.90;99.90;;;;;;5044093;28;20052;-71
2022/10/05 09:46:38;;;;;;;3.72;2.47;;;17.00;99.90;;;;;;5042393;28;20103;-71
2022/10/05 09:49:31;;;;;;;2.65;2.15;;;17.00;99.90;;;;;;5042180;28;20057;-71
2022/10/05 09:52:19;;;;;;;3.13;2.33;;;17.00;99.90;;;;;;5046528;28;20059;-70
2022/10/05 09:55:17;;;;;;;5.97;3.00;;;17.00;99.90;;;;;;5023770;28;20053;-70
2022/10/05 09:58:22;;;;;;;4.03;3.35;;;17.00;99.90;;;;;;5046074;28;20057;-71
2022/10/05 10:00:56;;;;;;;3.80;2.40;;;17.00;99.90;;;;;;5038702;28;20132;-71
2022/10/05 10:03:25;;;;;;;3.72;2.80;;;17.00;99.90;;;;;;5042098;28;20041;-70
2022/10/05 10:05:59;;;;;;;4.55;2.85;;;16.90;99.90;;;;;;5046995;28;20040;-70
2022/10/05 10:08:58;;;;;;;;;;;16.90;99.90;;;;;;5047630;28;20131;-70
2022/10/05 10:11:42;;;;;;;3.15;2.60;;;16.80;99.90;;;;;;5011452;28;19923;-70
2022/10/05 10:14:21;;;;;;;3.72;3.00;;;16.90;99.90;;;;;;5046038;28;20513;-70
2022/10/05 10:17:10;;;;;;;6.30;2.80;;;16.80;99.90;;;;;;5043153;28;20095;-70
2022/10/05 10:19:57;;;;;;;3.45;2.60;;;16.90;99.90;;;;;;5047133;28;20037;-70
2022/10/05 10:22:32;;;;;;;7.57;3.10;;;16.90;99.90;;;;;;5045470;28;20036;-70
2022/10/05 10:25:34;;;;;;;4.22;2.75;;;16.90;99.90;;;;;;5043175;28;20091;-71
2022/10/05 10:28:34;;;;;;;4.65;3.35;;;16.90;99.90;;;;;;5040279;28;20045;-71
2022/10/05 10:31:45;;;;;;;3.92;2.65;;;17.00;99.90;;;;;;5048211;28;20041;-71
2022/10/05 10:34:45;;;;;;;4.18;2.80;;;17.00;99.90;;;;;;5020372;28;20052;-70
2022/10/05 10:37:32;;;;;;;3.60;2.80;;;17.00;99.90;;;;;;5030866;28;20537;-70
2022/10/05 10:40:24;;;;;;;5.70;2.90;;;17.00;99.90;;;;;;5043410;28;20040;-71
2022/10/05 10:43:15;;;;;;;4.53;3.08;;;17.00;99.90;;;;;;5046484;28;20048;-71
2022/10/05 10:46:00;;;;;;;4.47;2.70;;;17.10;99.90;;;;;;5040607;28;20036;-70
2022/10/05 10:48:29;;;;;;;3.17;2.45;;;17.10;99.90;;;;;;5011243;28;20389;-71
2022/10/05 10:51:20;;;;;;;6.05;2.50;;;17.20;99.90;;;;;;5029396;28;20083;-70
2022/10/05 10:54:12;;;;;;;4.38;2.67;;;17.30;99.90;;;;;;5045202;28;20041;-71
2022/10/05 10:57:04;;;;;;;4.18;2.58;;;17.30;99.90;;;;;;5043591;28;20525;-70
2022/10/05 10:59:45;;;;;;;4.78;2.42;;;17.30;99.90;;;;;;5040259;28;20460;-71
2022/10/05 11:02:36;;;;;;;3.17;2.15;;;17.30;99.90;;;;;;5043929;28;20089;-71
2022/10/05 11:05:26;;;;;;;3.67;2.00;;;17.40;99.90;;;;;;5046383;28;20120;-71
2022/10/05 11:08:14;;;;;;;3.50;2.22;;;17.50;99.90;;;;;;5047754;28;20048;-71
2022/10/05 11:11:04;;;;;;;2.45;2.10;;;17.60;99.90;;;;;;5043295;28;20051;-71
2022/10/05 11:14:03;;;;;;;2.78;1.90;;;17.70;99.90;;;;;;5044951;28;20041;-71
2022/10/05 11:16:53;;;;;;;2.67;2.47;;;17.70;99.90;;;;;;5043764;28;20041;-71
2022/10/05 11:19:22;;;;;;;4.55;2.17;;;17.80;99.90;;;;;;5043459;28;20079;-70
2022/10/05 11:22:16;;;;;;;3.25;1.90;;;17.80;99.90;;;;;;5049226;28;20041;-71
2022/10/05 11:24:54;;;;;;;3.78;1.77;;;17.90;99.90;;;;;;5044327;28;20445;-70
2022/10/05 11:28:02;;;;;;;4.40;1.90;;;17.90;99.90;;;;;;5045497;28;20037;-71
2022/10/05 11:30:47;;;;;;;3.78;1.65;;;18.00;99.90;;;;;;5043513;28;20061;-71
2022/10/05 11:33:24;;;;;;;2.25;1.60;;;18.10;99.90;;;;;;5046612;28;20076;-70
2022/10/05 11:36:04;;;;;;;3.47;1.88;;;18.20;99.90;;;;;;5046582;28;20102;-70
2022/10/05 11:38:47;;;;;;;2.88;1.50;;;18.20;99.90;;;;;;5041312;28;20723;-70
2022/10/05 11:41:40;;;;;;;6.05;2.10;;;18.10;99.90;;;;;;5043679;28;20091;-71
2022/10/05 11:44:34;;;;;;;2.72;1.83;;;18.10;99.90;;;;;;5036092;28;20064;-70
2022/10/05 11:47:38;;;;;;;3.47;2.15;;;18.00;99.90;;;;;;5037675;28;20044;-70
2022/10/05 11:50:09;;;;;;;3.15;1.95;;;18.00;99.90;;;;;;4997652;28;20575;-71
2022/10/05 11:52:43;;;;;;;3.13;1.85;;;17.90;99.90;;;;;;5046284;28;20037;-71
2022/10/05 11:55:22;;;;;;;4.82;1.90;;;17.80;99.90;;;;;;5046225;28;20079;-71
2022/10/05 11:58:06;;;;;;;3.65;1.60;;;17.80;99.90;;;;;;5046750;28;20473;-71
2022/10/05 12:01:07;;;;;;;4.63;1.93;;;17.80;99.90;;;;;;5048816;28;20156;-70
2022/10/05 12:04:05;;;;;;;4.07;1.52;;;17.80;99.90;;;;;;4990963;28;20118;-71
2022/10/05 12:06:51;;;;;;;5.50;1.80;;;17.70;99.90;;;;;;5021563;28;20041;-71
2022/10/05 12:10:20;;;;;;;3.38;1.90;;;17.70;99.90;;;;;;5049601;28;20056;-71
2022/10/05 12:12:54;;;;;;;3.28;1.75;;;17.70;99.90;;;;;;5026677;28;20053;-71
2022/10/05 12:15:27;;;;;;;4.85;1.88;;;17.70;99.90;;;;;;5045734;28;20396;-71
2022/10/05 12:18:07;;;;;;;3.47;1.70;;;17.70;99.90;;;;;;5046339;28;20095;-71
2022/10/05 12:20:58;;;;;;;4.70;2.00;;;17.60;99.90;;;;;;5045031;28;20040;-72
2022/10/05 12:23:41;;;;;;;2.55;1.85;;;17.60;99.90;;;;;;5045492;28;20115;-71
2022/10/05 12:26:25;;;;;;;2.42;1.65;;;17.60;99.90;;;;;;5043227;28;20058;-71
2022/10/05 12:28:56;;;;;;;5.25;2.03;;;17.60;99.90;;;;;;5049405;28;20383;-71
2022/10/05 12:31:39;;;;;;;4.32;1.80;;;17.50;99.90;;;;;;5048116;28;20132;-71
2022/10/05 12:34:11;;;;;;;6.00;2.00;;;17.50;99.90;;;;;;5048869;28;20064;-71
2022/10/05 12:37:00;;;;;;;3.45;1.90;;;17.50;99.90;;;;;;5046216;28;20064;-71
2022/10/05 12:39:40;;;;;;;4.10;2.08;;;17.50;99.90;;;;;;5035142;28;20060;-71
2022/10/05 12:42:15;;;;;;;4.82;2.05;;;17.50;99.90;;;;;;5049016;28;20098;-71
2022/10/05 12:45:03;;;;;;;4.35;2.15;;;17.50;99.90;;;;;;5053852;28;20048;-71
2022/10/05 12:47:39;;;;;;;5.07;2.03;;;17.60;99.90;;;;;;5050317;28;20080;-71
2022/10/05 12:50:22;;;;;;;4.32;2.20;;;17.50;99.90;;;;;;5048629;28;20127;-72
2022/10/05 12:53:00;;;;;;;4.33;2.20;;;17.50;99.90;;;;;;5049993;28;20135;-71
2022/10/05 12:56:03;;;;;;;3.00;2.15;;;17.50;99.90;;;;;;5048897;28;20116;-71
2022/10/05 12:58:42;;;;;;;3.35;2.40;;;17.60;99.90;;;;;;5045510;28;20051;-71
2022/10/05 13:01:32;;;;;;;4.40;2.20;;;17.60;99.90;;;;;;5047992;28;20052;-71
2022/10/05 13:04:20;;;;;;;9.68;2.58;;;17.60;99.90;;;;;;5047161;28;20039;-71
2022/10/05 13:07:23;;;;;;;3.42;2.30;;;17.70;99.90;;;;;;5043788;28;20045;-71
2022/10/05 13:10:00;;;;;;;3.05;1.95;;;17.70;99.90;;;;;;5044673;28;20099;-71
2022/10/05 13:12:46;;;;;;;3.63;2.22;;;17.70;99.90;;;;;;5041476;28;20049;-71
2022/10/05 13:15:18;;;;;;;4.10;2.20;;;17.70;99.90;;;;;;5045664;28;20057;-70
2022/10/05 13:18:02;;;;;;;3.75;2.40;;;17.80;99.90;;;;;;5043814;28;20060;-71
2022/10/05 13:20:56;;;;;;;5.83;2.10;;;17.80;99.90;;;;;;5042860;28;20132;-71
2022/10/05 13:23:45;;;;;;;5.25;2.13;;;17.90;99.90;;;;;;5045299;28;20331;-71
2022/10/05 13:26:14;;;;;;;4.75;1.80;;;18.00;99.90;;;;;;5032580;28;20108;-71
2022/10/05 13:29:04;;;;;;;3.67;2.17;;;18.10;99.90;;;;;;5045989;28;20516;-71
2022/10/05 13:31:45;;;;;;;6.53;2.00;;;18.20;99.90;;;;;;5045152;28;20041;-71
2022/10/05 13:34:37;;;;;;;3.30;1.83;;;18.30;99.90;;;;;;5048236;28;20088;-71
2022/10/05 13:37:30;;;;;;;3.53;1.77;;;18.40;99.90;;;;;;5045905;28;20243;-71
2022/10/05 13:40:09;;;;;;;4.30;1.75;;;18.40;99.90;;;;;;5048642;28;20067;-71
2022/10/05 13:42:59;;;;;;;4.40;1.88;;;18.50;99.90;;;;;;5029091;28;20064;-71
2022/10/05 13:45:52;;;;;;;4.03;1.85;;;18.50;99.90;;;;;;5049561;28;20136;-71
2022/10/05 13:48:40;;;;;;;3.05;1.88;;;18.50;99.90;;;;;;5045008;28;20097;-71
2022/10/05 13:51:14;;;;;;;2.55;1.65;;;18.50;99.90;;;;;;5043300;28;20050;-71
2022/10/05 13:54:12;;;;;;;5.18;2.30;;;18.50;99.90;;;;;;5050143;28;20063;-71
2022/10/05 13:57:20;;;;;;;3.75;1.92;;;18.50;99.90;;;;;;5029446;28;20337;-71
2022/10/05 13:59:53;;;;;;;3.00;1.77;;;18.50;99.90;;;;;;5020138;28;20053;-71
2022/10/05 14:02:34;;;;;;;3.13;1.70;;;18.40;99.90;;;;;;5048242;28;20045;-72
2022/10/05 14:05:12;;;;;;;3.13;1.85;;;18.40;99.90;;;;;;5039428;28;20037;-72
2022/10/05 14:07:54;;;;;;;2.70;1.30;;;18.30;99.90;;;;;;5039178;28;20072;-72
2022/10/05 14:10:40;;;;;;;3.10;1.70;;;18.40;99.90;;;;;;5045949;28;20212;-72
2022/10/05 14:13:39;;;;;;;3.20;1.58;;;18.40;99.90;;;;;;5046474;28;20207;-72
2022/10/05 14:16:11;;;;;;;4.85;1.60;;;18.40;99.90;;;;;;5060829;28;20061;-71